sensor_id;sensor_type;location;lat;lon;timestamp;P1;durP1;ratioP1;P2;durP2;ratioP2
15408;SDS011;7803;48.130;13.788;2023-02-01T00:00:44;8.93;;;8.02;;
15408;SDS011;7803;48.130;13.788;2023-02-01T00:03:48;8.30;;;7.50;;
15408;SDS011;7803;48.130;13.788;2023-02-01T00:06:50;9.40;;;7.30;;
15408;SDS011;7803;48.130;13.788;2023-02-01T00:09:52;8.48;;;7.68;;
15408;SDS011;7803;48.130;13.788;2023-02-01T00:12:55;7.95;;;7.15;;
15408;SDS011;7803;48.130;13.788;2023-02-01T00:16:02;7.60;;;6.90;;
15408;SDS011;7803;48.130;13.788;2023-02-01T00:19:07;7.70;;;7.00;;
15408;SDS011;7803;48.130;13.788;2023-02-01T00:22:14;8.23;;;7.43;;
15408;SDS011;7803;48.130;13.788;2023-02-01T00:25:16;8.00;;;7.20;;
15408;SDS011;7803;48.130;13.788;2023-02-01T00:28:18;8.60;;;7.25;;
15408;SDS011;7803;48.130;13.788;2023-02-01T00:31:20;7.65;;;6.95;;
15408;SDS011;7803;48.130;13.788;2023-02-01T00:34:24;7.45;;;6.75;;
15408;SDS011;7803;48.130;13.788;2023-02-01T00:37:26;7.80;;;7.00;;
15408;SDS011;7803;48.130;13.788;2023-02-01T00:40:28;8.05;;;7.25;;
15408;SDS011;7803;48.130;13.788;2023-02-01T00:43:31;7.75;;;6.95;;
15408;SDS011;7803;48.130;13.788;2023-02-01T00:46:33;7.13;;;6.43;;
15408;SDS011;7803;48.130;13.788;2023-02-01T00:49:37;7.32;;;6.57;;
15408;SDS011;7803;48.130;13.788;2023-02-01T00:52:39;6.90;;;6.20;;
15408;SDS011;7803;48.130;13.788;2023-02-01T00:55:44;7.22;;;6.53;;
15408;SDS011;7803;48.130;13.788;2023-02-01T00:58:46;7.13;;;6.43;;
15408;SDS011;7803;48.130;13.788;2023-02-01T01:01:50;6.40;;;5.80;;
15408;SDS011;7803;48.130;13.788;2023-02-01T01:04:54;6.82;;;6.13;;
15408;SDS011;7803;48.130;13.788;2023-02-01T01:07:56;6.35;;;5.75;;
15408;SDS011;7803;48.130;13.788;2023-02-01T01:11:03;6.25;;;5.65;;
15408;SDS011;7803;48.130;13.788;2023-02-01T01:14:07;6.40;;;5.80;;
15408;SDS011;7803;48.130;13.788;2023-02-01T01:17:10;6.68;;;5.95;;
15408;SDS011;7803;48.130;13.788;2023-02-01T01:20:13;6.05;;;5.45;;
15408;SDS011;7803;48.130;13.788;2023-02-01T01:23:16;6.47;;;5.78;;
15408;SDS011;7803;48.130;13.788;2023-02-01T01:26:20;6.25;;;5.65;;
15408;SDS011;7803;48.130;13.788;2023-02-01T01:29:24;6.35;;;5.75;;
15408;SDS011;7803;48.130;13.788;2023-02-01T01:32:28;6.20;;;5.60;;
15408;SDS011;7803;48.130;13.788;2023-02-01T01:35:32;6.35;;;5.72;;
15408;SDS011;7803;48.130;13.788;2023-02-01T01:38:34;5.90;;;5.30;;
15408;SDS011;7803;48.130;13.788;2023-02-01T01:41:37;5.68;;;5.13;;
15408;SDS011;7803;48.130;13.788;2023-02-01T01:44:58;5.32;;;4.82;;
15408;SDS011;7803;48.130;13.788;2023-02-01T01:48:04;5.85;;;5.25;;
15408;SDS011;7803;48.130;13.788;2023-02-01T01:51:10;5.63;;;5.07;;
15408;SDS011;7803;48.130;13.788;2023-02-01T01:54:18;5.47;;;4.93;;
15408;SDS011;7803;48.130;13.788;2023-02-01T01:57:23;5.45;;;4.93;;
15408;SDS011;7803;48.130;13.788;2023-02-01T02:00:28;5.05;;;4.55;;
15408;SDS011;7803;48.130;13.788;2023-02-01T02:03:33;5.43;;;4.93;;
15408;SDS011;7803;48.130;13.788;2023-02-01T02:06:42;5.78;;;5.18;;
15408;SDS011;7803;48.130;13.788;2023-02-01T02:09:53;4.95;;;4.45;;
15408;SDS011;7803;48.130;13.788;2023-02-01T02:12:58;5.10;;;4.60;;
15408;SDS011;7803;48.130;13.788;2023-02-01T02:16:05;4.97;;;4.47;;
15408;SDS011;7803;48.130;13.788;2023-02-01T02:23:19;4.88;;;4.38;;
15408;SDS011;7803;48.130;13.788;2023-02-01T02:34:23;4.65;;;4.10;;
15408;SDS011;7803;48.130;13.788;2023-02-01T02:37:31;4.82;;;4.28;;
15408;SDS011;7803;48.130;13.788;2023-02-01T02:40:41;4.70;;;4.22;;
15408;SDS011;7803;48.130;13.788;2023-02-01T02:43:48;4.40;;;4.00;;
15408;SDS011;7803;48.130;13.788;2023-02-01T02:47:18;4.20;;;3.80;;
15408;SDS011;7803;48.130;13.788;2023-02-01T02:50:27;4.65;;;4.20;;
15408;SDS011;7803;48.130;13.788;2023-02-01T02:53:52;4.43;;;4.03;;
15408;SDS011;7803;48.130;13.788;2023-02-01T02:57:19;3.80;;;3.40;;
15408;SDS011;7803;48.130;13.788;2023-02-01T03:00:41;4.40;;;4.00;;
15408;SDS011;7803;48.130;13.788;2023-02-01T03:04:03;4.05;;;3.65;;
15408;SDS011;7803;48.130;13.788;2023-02-01T03:10:57;4.03;;;3.63;;
15408;SDS011;7803;48.130;13.788;2023-02-01T03:14:02;4.07;;;3.67;;
15408;SDS011;7803;48.130;13.788;2023-02-01T03:17:07;4.20;;;3.80;;
15408;SDS011;7803;48.130;13.788;2023-02-01T03:20:15;4.15;;;3.78;;
15408;SDS011;7803;48.130;13.788;2023-02-01T03:23:21;4.30;;;3.90;;
15408;SDS011;7803;48.130;13.788;2023-02-01T03:26:29;4.18;;;3.60;;
15408;SDS011;7803;48.130;13.788;2023-02-01T03:29:36;4.10;;;3.70;;
15408;SDS011;7803;48.130;13.788;2023-02-01T03:32:42;4.55;;;3.85;;
15408;SDS011;7803;48.130;13.788;2023-02-01T03:36:03;3.90;;;3.50;;
15408;SDS011;7803;48.130;13.788;2023-02-01T03:39:15;4.07;;;3.67;;
15408;SDS011;7803;48.130;13.788;2023-02-01T03:42:23;4.10;;;3.70;;
15408;SDS011;7803;48.130;13.788;2023-02-01T03:45:30;3.80;;;3.40;;
15408;SDS011;7803;48.130;13.788;2023-02-01T03:48:34;3.90;;;3.50;;
15408;SDS011;7803;48.130;13.788;2023-02-01T03:51:38;3.75;;;3.35;;
15408;SDS011;7803;48.130;13.788;2023-02-01T03:54:42;3.90;;;3.50;;
15408;SDS011;7803;48.130;13.788;2023-02-01T03:57:48;3.60;;;3.30;;
15408;SDS011;7803;48.130;13.788;2023-02-01T04:00:55;4.10;;;3.70;;
15408;SDS011;7803;48.130;13.788;2023-02-01T04:03:58;3.90;;;3.50;;
15408;SDS011;7803;48.130;13.788;2023-02-01T04:07:00;4.05;;;3.65;;
15408;SDS011;7803;48.130;13.788;2023-02-01T04:10:03;3.70;;;3.40;;
15408;SDS011;7803;48.130;13.788;2023-02-01T04:13:07;4.57;;;3.58;;
15408;SDS011;7803;48.130;13.788;2023-02-01T04:16:10;7.75;;;4.07;;
15408;SDS011;7803;48.130;13.788;2023-02-01T04:19:13;4.68;;;4.05;;
15408;SDS011;7803;48.130;13.788;2023-02-01T04:22:15;4.35;;;3.95;;
15408;SDS011;7803;48.130;13.788;2023-02-01T04:25:18;4.40;;;4.00;;
15408;SDS011;7803;48.130;13.788;2023-02-01T04:28:22;4.22;;;3.80;;
15408;SDS011;7803;48.130;13.788;2023-02-01T04:31:24;4.20;;;3.80;;
15408;SDS011;7803;48.130;13.788;2023-02-01T04:34:27;4.60;;;3.50;;
15408;SDS011;7803;48.130;13.788;2023-02-01T04:37:29;4.20;;;3.67;;
15408;SDS011;7803;48.130;13.788;2023-02-01T04:40:31;3.80;;;3.40;;
15408;SDS011;7803;48.130;13.788;2023-02-01T04:43:35;3.65;;;3.35;;
15408;SDS011;7803;48.130;13.788;2023-02-01T04:46:37;3.92;;;3.50;;
15408;SDS011;7803;48.130;13.788;2023-02-01T04:49:39;3.80;;;3.30;;
15408;SDS011;7803;48.130;13.788;2023-02-01T04:52:41;3.80;;;3.40;;
15408;SDS011;7803;48.130;13.788;2023-02-01T04:55:47;4.00;;;3.60;;
15408;SDS011;7803;48.130;13.788;2023-02-01T04:58:51;3.50;;;3.20;;
15408;SDS011;7803;48.130;13.788;2023-02-01T05:01:53;6.80;;;3.60;;
15408;SDS011;7803;48.130;13.788;2023-02-01T05:04:56;3.60;;;3.30;;
15408;SDS011;7803;48.130;13.788;2023-02-01T05:07:58;4.22;;;3.50;;
15408;SDS011;7803;48.130;13.788;2023-02-01T05:11:00;3.58;;;3.20;;
15408;SDS011;7803;48.130;13.788;2023-02-01T05:14:04;3.78;;;3.38;;
15408;SDS011;7803;48.130;13.788;2023-02-01T05:17:06;3.47;;;3.17;;
15408;SDS011;7803;48.130;13.788;2023-02-01T05:20:09;3.50;;;3.10;;
15408;SDS011;7803;48.130;13.788;2023-02-01T05:23:11;3.53;;;3.22;;
15408;SDS011;7803;48.130;13.788;2023-02-01T05:26:14;3.70;;;3.40;;
15408;SDS011;7803;48.130;13.788;2023-02-01T05:29:17;3.55;;;3.25;;
15408;SDS011;7803;48.130;13.788;2023-02-01T05:32:20;3.60;;;3.10;;
15408;SDS011;7803;48.130;13.788;2023-02-01T05:35:22;3.42;;;3.13;;
15408;SDS011;7803;48.130;13.788;2023-02-01T05:38:24;3.63;;;3.10;;
15408;SDS011;7803;48.130;13.788;2023-02-01T05:41:29;4.35;;;3.33;;
15408;SDS011;7803;48.130;13.788;2023-02-01T05:44:33;3.45;;;3.10;;
15408;SDS011;7803;48.130;13.788;2023-02-01T05:47:35;3.35;;;3.05;;
15408;SDS011;7803;48.130;13.788;2023-02-01T05:50:40;3.97;;;3.58;;
15408;SDS011;7803;48.130;13.788;2023-02-01T05:53:42;3.60;;;3.10;;
15408;SDS011;7803;48.130;13.788;2023-02-01T05:56:47;3.30;;;3.00;;
15408;SDS011;7803;48.130;13.788;2023-02-01T05:59:50;5.82;;;3.88;;
15408;SDS011;7803;48.130;13.788;2023-02-01T06:02:53;5.38;;;3.58;;
15408;SDS011;7803;48.130;13.788;2023-02-01T06:05:57;5.47;;;3.55;;
15408;SDS011;7803;48.130;13.788;2023-02-01T11:42:13;1.52;;;1.42;;
15408;SDS011;7803;48.130;13.788;2023-02-01T11:45:18;1.73;;;1.55;;
15408;SDS011;7803;48.130;13.788;2023-02-01T11:48:25;1.60;;;1.50;;
15408;SDS011;7803;48.130;13.788;2023-02-01T11:51:35;1.70;;;1.60;;
15408;SDS011;7803;48.130;13.788;2023-02-01T11:54:52;2.58;;;2.15;;
15408;SDS011;7803;48.130;13.788;2023-02-01T11:58:15;1.70;;;1.60;;
15408;SDS011;7803;48.130;13.788;2023-02-01T12:01:31;1.65;;;1.55;;
15408;SDS011;7803;48.130;13.788;2023-02-01T12:04:54;1.70;;;1.60;;
15408;SDS011;7803;48.130;13.788;2023-02-01T12:08:10;1.55;;;1.40;;
15408;SDS011;7803;48.130;13.788;2023-02-01T12:11:33;1.67;;;1.58;;
15408;SDS011;7803;48.130;13.788;2023-02-01T12:21:43;1.90;;;1.70;;
15408;SDS011;7803;48.130;13.788;2023-02-01T12:28:34;1.90;;;1.70;;
15408;SDS011;7803;48.130;13.788;2023-02-01T12:31:54;1.90;;;1.70;;
15408;SDS011;7803;48.130;13.788;2023-02-01T12:35:13;1.58;;;1.48;;
15408;SDS011;7803;48.130;13.788;2023-02-01T12:41:47;1.40;;;1.30;;
15408;SDS011;7803;48.130;13.788;2023-02-01T12:44:59;1.27;;;1.17;;
15408;SDS011;7803;48.130;13.788;2023-02-01T12:48:16;1.52;;;1.42;;
15408;SDS011;7803;48.130;13.788;2023-02-01T12:51:27;1.67;;;1.50;;
15408;SDS011;7803;48.130;13.788;2023-02-01T12:54:34;1.58;;;1.40;;
15408;SDS011;7803;48.130;13.788;2023-02-01T12:57:43;1.50;;;1.40;;
15408;SDS011;7803;48.130;13.788;2023-02-01T13:00:51;2.00;;;1.50;;
15408;SDS011;7803;48.130;13.788;2023-02-01T13:04:01;1.80;;;1.50;;
15408;SDS011;7803;48.130;13.788;2023-02-01T13:07:12;1.50;;;1.40;;
15408;SDS011;7803;48.130;13.788;2023-02-01T13:10:21;1.40;;;1.30;;
15408;SDS011;7803;48.130;13.788;2023-02-01T13:13:31;1.42;;;1.33;;
15408;SDS011;7803;48.130;13.788;2023-02-01T13:16:40;1.70;;;1.50;;
15408;SDS011;7803;48.130;13.788;2023-02-01T13:19:47;1.50;;;1.38;;
15408;SDS011;7803;48.130;13.788;2023-02-01T13:22:53;1.35;;;1.25;;
15408;SDS011;7803;48.130;13.788;2023-02-01T13:26:00;1.52;;;1.40;;
15408;SDS011;7803;48.130;13.788;2023-02-01T13:29:03;1.63;;;1.40;;
15408;SDS011;7803;48.130;13.788;2023-02-01T13:32:27;1.50;;;1.40;;
15408;SDS011;7803;48.130;13.788;2023-02-01T13:35:46;1.40;;;1.30;;
15408;SDS011;7803;48.130;13.788;2023-02-01T13:39:08;1.52;;;1.42;;
15408;SDS011;7803;48.130;13.788;2023-02-01T13:42:27;1.48;;;1.20;;
15408;SDS011;7803;48.130;13.788;2023-02-01T13:45:32;1.67;;;1.30;;
15408;SDS011;7803;48.130;13.788;2023-02-01T13:48:38;1.35;;;1.25;;
15408;SDS011;7803;48.130;13.788;2023-02-01T13:51:48;1.67;;;1.50;;
15408;SDS011;7803;48.130;13.788;2023-02-01T13:55:01;2.08;;;1.85;;
15408;SDS011;7803;48.130;13.788;2023-02-01T13:58:15;1.63;;;1.50;;
15408;SDS011;7803;48.130;13.788;2023-02-01T14:04:47;1.30;;;1.20;;
15408;SDS011;7803;48.130;13.788;2023-02-01T14:08:09;1.30;;;1.20;;
15408;SDS011;7803;48.130;13.788;2023-02-01T14:14:39;1.33;;;1.23;;
15408;SDS011;7803;48.130;13.788;2023-02-01T14:17:44;1.60;;;1.50;;
15408;SDS011;7803;48.130;13.788;2023-02-01T14:20:47;1.60;;;1.48;;
15408;SDS011;7803;48.130;13.788;2023-02-01T14:23:58;1.40;;;1.20;;
15408;SDS011;7803;48.130;13.788;2023-02-01T14:27:02;1.42;;;1.30;;
15408;SDS011;7803;48.130;13.788;2023-02-01T14:30:19;2.28;;;1.58;;
15408;SDS011;7803;48.130;13.788;2023-02-01T14:33:22;2.13;;;1.52;;
15408;SDS011;7803;48.130;13.788;2023-02-01T14:36:26;2.25;;;1.55;;
15408;SDS011;7803;48.130;13.788;2023-02-01T14:39:53;1.77;;;1.42;;
15408;SDS011;7803;48.130;13.788;2023-02-01T14:42:58;2.00;;;1.70;;
15408;SDS011;7803;48.130;13.788;2023-02-01T14:46:00;1.50;;;1.35;;
15408;SDS011;7803;48.130;13.788;2023-02-01T14:49:02;1.60;;;1.50;;
15408;SDS011;7803;48.130;13.788;2023-02-01T14:52:05;1.70;;;1.50;;
15408;SDS011;7803;48.130;13.788;2023-02-01T14:55:17;1.60;;;1.50;;
15408;SDS011;7803;48.130;13.788;2023-02-01T14:58:29;1.70;;;1.50;;
15408;SDS011;7803;48.130;13.788;2023-02-01T15:01:38;1.55;;;1.33;;
15408;SDS011;7803;48.130;13.788;2023-02-01T15:04:47;1.88;;;1.60;;
15408;SDS011;7803;48.130;13.788;2023-02-01T15:07:56;1.70;;;1.55;;
15408;SDS011;7803;48.130;13.788;2023-02-01T15:11:01;1.63;;;1.48;;
15408;SDS011;7803;48.130;13.788;2023-02-01T15:14:11;1.60;;;1.50;;
15408;SDS011;7803;48.130;13.788;2023-02-01T15:17:17;1.73;;;1.55;;
15408;SDS011;7803;48.130;13.788;2023-02-01T15:20:21;1.50;;;1.40;;
15408;SDS011;7803;48.130;13.788;2023-02-01T15:23:24;2.33;;;1.65;;
15408;SDS011;7803;48.130;13.788;2023-02-01T15:26:30;1.83;;;1.67;;
15408;SDS011;7803;48.130;13.788;2023-02-01T15:29:33;2.22;;;1.98;;
15408;SDS011;7803;48.130;13.788;2023-02-01T15:32:36;1.85;;;1.70;;
15408;SDS011;7803;48.130;13.788;2023-02-01T15:35:40;2.00;;;1.70;;
15408;SDS011;7803;48.130;13.788;2023-02-01T15:38:44;1.50;;;1.40;;
15408;SDS011;7803;48.130;13.788;2023-02-01T15:41:48;1.70;;;1.40;;
15408;SDS011;7803;48.130;13.788;2023-02-01T15:44:52;1.70;;;1.60;;
15408;SDS011;7803;48.130;13.788;2023-02-01T15:47:55;1.92;;;1.70;;
15408;SDS011;7803;48.130;13.788;2023-02-01T15:50:59;2.60;;;1.50;;
15408;SDS011;7803;48.130;13.788;2023-02-01T15:54:02;1.55;;;1.45;;
15408;SDS011;7803;48.130;13.788;2023-02-01T15:57:09;2.70;;;1.60;;
15408;SDS011;7803;48.130;13.788;2023-02-01T16:00:18;1.80;;;1.60;;
15408;SDS011;7803;48.130;13.788;2023-02-01T16:03:32;1.88;;;1.77;;
15408;SDS011;7803;48.130;13.788;2023-02-01T16:06:36;1.92;;;1.60;;
15408;SDS011;7803;48.130;13.788;2023-02-01T16:09:48;1.70;;;1.60;;
15408;SDS011;7803;48.130;13.788;2023-02-01T16:12:56;1.67;;;1.58;;
15408;SDS011;7803;48.130;13.788;2023-02-01T16:16:00;2.08;;;1.40;;
15408;SDS011;7803;48.130;13.788;2023-02-01T16:19:02;1.60;;;1.50;;
15408;SDS011;7803;48.130;13.788;2023-02-01T16:22:04;2.55;;;1.63;;
15408;SDS011;7803;48.130;13.788;2023-02-01T16:25:07;1.85;;;1.67;;
15408;SDS011;7803;48.130;13.788;2023-02-01T16:28:11;1.67;;;1.58;;
15408;SDS011;7803;48.130;13.788;2023-02-01T16:31:14;1.98;;;1.60;;
15408;SDS011;7803;48.130;13.788;2023-02-01T16:34:20;1.70;;;1.48;;
15408;SDS011;7803;48.130;13.788;2023-02-01T16:37:23;1.63;;;1.52;;
15408;SDS011;7803;48.130;13.788;2023-02-01T16:40:28;1.65;;;1.55;;
15408;SDS011;7803;48.130;13.788;2023-02-01T16:43:31;1.50;;;1.40;;
15408;SDS011;7803;48.130;13.788;2023-02-01T16:46:34;1.75;;;1.40;;
15408;SDS011;7803;48.130;13.788;2023-02-01T16:49:40;1.85;;;1.45;;
15408;SDS011;7803;48.130;13.788;2023-02-01T16:52:43;1.38;;;1.27;;
15408;SDS011;7803;48.130;13.788;2023-02-01T16:55:46;1.70;;;1.60;;
15408;SDS011;7803;48.130;13.788;2023-02-01T16:58:50;1.40;;;1.30;;
15408;SDS011;7803;48.130;13.788;2023-02-01T17:01:54;2.15;;;1.40;;
15408;SDS011;7803;48.130;13.788;2023-02-01T17:04:57;1.60;;;1.50;;
15408;SDS011;7803;48.130;13.788;2023-02-01T17:08:00;2.13;;;1.70;;
15408;SDS011;7803;48.130;13.788;2023-02-01T17:11:06;1.80;;;1.40;;
15408;SDS011;7803;48.130;13.788;2023-02-01T17:14:14;1.30;;;1.20;;
15408;SDS011;7803;48.130;13.788;2023-02-01T17:17:17;1.92;;;1.42;;
15408;SDS011;7803;48.130;13.788;2023-02-01T17:20:22;1.85;;;1.30;;
15408;SDS011;7803;48.130;13.788;2023-02-01T17:23:28;1.60;;;1.50;;
15408;SDS011;7803;48.130;13.788;2023-02-01T17:26:31;1.67;;;1.58;;
15408;SDS011;7803;48.130;13.788;2023-02-01T17:29:35;1.50;;;1.40;;
15408;SDS011;7803;48.130;13.788;2023-02-01T17:32:38;1.80;;;1.60;;
15408;SDS011;7803;48.130;13.788;2023-02-01T17:35:41;1.55;;;1.45;;
15408;SDS011;7803;48.130;13.788;2023-02-01T17:38:43;1.75;;;1.58;;
15408;SDS011;7803;48.130;13.788;2023-02-01T17:41:46;1.80;;;1.50;;
15408;SDS011;7803;48.130;13.788;2023-02-01T17:44:50;1.40;;;1.30;;
15408;SDS011;7803;48.130;13.788;2023-02-01T17:47:55;1.60;;;1.38;;
15408;SDS011;7803;48.130;13.788;2023-02-01T17:50:59;1.65;;;1.38;;
15408;SDS011;7803;48.130;13.788;2023-02-01T17:54:02;2.60;;;1.60;;
15408;SDS011;7803;48.130;13.788;2023-02-01T17:57:07;1.60;;;1.50;;
15408;SDS011;7803;48.130;13.788;2023-02-01T18:00:14;1.75;;;1.40;;
15408;SDS011;7803;48.130;13.788;2023-02-01T18:03:22;1.50;;;1.40;;
15408;SDS011;7803;48.130;13.788;2023-02-01T18:06:33;1.85;;;1.50;;
15408;SDS011;7803;48.130;13.788;2023-02-01T18:09:36;1.50;;;1.40;;
15408;SDS011;7803;48.130;13.788;2023-02-01T18:12:41;1.60;;;1.40;;
15408;SDS011;7803;48.130;13.788;2023-02-01T18:15:48;1.70;;;1.60;;
15408;SDS011;7803;48.130;13.788;2023-02-01T18:18:51;1.60;;;1.50;;
15408;SDS011;7803;48.130;13.788;2023-02-01T18:21:53;1.83;;;1.60;;
15408;SDS011;7803;48.130;13.788;2023-02-01T18:24:57;1.63;;;1.52;;
15408;SDS011;7803;48.130;13.788;2023-02-01T18:28:00;1.55;;;1.45;;
15408;SDS011;7803;48.130;13.788;2023-02-01T18:31:05;1.80;;;1.40;;
15408;SDS011;7803;48.130;13.788;2023-02-01T18:34:07;2.17;;;1.50;;
15408;SDS011;7803;48.130;13.788;2023-02-01T18:37:16;2.08;;;1.45;;
15408;SDS011;7803;48.130;13.788;2023-02-01T18:40:20;1.70;;;1.40;;
15408;SDS011;7803;48.130;13.788;2023-02-01T18:43:25;1.60;;;1.42;;
15408;SDS011;7803;48.130;13.788;2023-02-01T18:46:29;1.63;;;1.45;;
15408;SDS011;7803;48.130;13.788;2023-02-01T18:49:32;1.45;;;1.35;;
15408;SDS011;7803;48.130;13.788;2023-02-01T18:52:36;1.65;;;1.40;;
15408;SDS011;7803;48.130;13.788;2023-02-01T18:55:40;1.83;;;1.70;;
15408;SDS011;7803;48.130;13.788;2023-02-01T18:58:45;1.60;;;1.40;;
15408;SDS011;7803;48.130;13.788;2023-02-01T19:01:50;1.50;;;1.30;;
15408;SDS011;7803;48.130;13.788;2023-02-01T19:04:54;1.60;;;1.33;;
15408;SDS011;7803;48.130;13.788;2023-02-01T19:08:01;1.50;;;1.30;;
15408;SDS011;7803;48.130;13.788;2023-02-01T19:11:05;1.67;;;1.38;;
15408;SDS011;7803;48.130;13.788;2023-02-01T19:14:10;1.92;;;1.40;;
15408;SDS011;7803;48.130;13.788;2023-02-01T19:17:14;1.83;;;1.40;;
15408;SDS011;7803;48.130;13.788;2023-02-01T19:20:18;2.38;;;1.70;;
15408;SDS011;7803;48.130;13.788;2023-02-01T19:23:22;2.17;;;1.73;;
15408;SDS011;7803;48.130;13.788;2023-02-01T19:26:25;1.55;;;1.45;;
15408;SDS011;7803;48.130;13.788;2023-02-01T19:29:28;1.52;;;1.42;;
15408;SDS011;7803;48.130;13.788;2023-02-01T19:32:33;1.85;;;1.58;;
15408;SDS011;7803;48.130;13.788;2023-02-01T19:35:36;1.75;;;1.52;;
15408;SDS011;7803;48.130;13.788;2023-02-01T19:38:39;1.90;;;1.50;;
15408;SDS011;7803;48.130;13.788;2023-02-01T19:41:43;1.50;;;1.35;;
15408;SDS011;7803;48.130;13.788;2023-02-01T19:44:46;1.67;;;1.42;;
15408;SDS011;7803;48.130;13.788;2023-02-01T19:47:50;2.80;;;1.70;;
15408;SDS011;7803;48.130;13.788;2023-02-01T19:50:54;1.65;;;1.30;;
15408;SDS011;7803;48.130;13.788;2023-02-01T19:53:58;1.20;;;1.10;;
15408;SDS011;7803;48.130;13.788;2023-02-01T19:57:03;1.63;;;1.20;;
15408;SDS011;7803;48.130;13.788;2023-02-01T20:00:07;1.85;;;1.42;;
15408;SDS011;7803;48.130;13.788;2023-02-01T20:03:13;1.70;;;1.40;;
15408;SDS011;7803;48.130;13.788;2023-02-01T20:06:16;1.90;;;1.48;;
15408;SDS011;7803;48.130;13.788;2023-02-01T20:09:21;1.77;;;1.50;;
15408;SDS011;7803;48.130;13.788;2023-02-01T20:12:24;1.92;;;1.35;;
15408;SDS011;7803;48.130;13.788;2023-02-01T20:15:27;1.70;;;1.50;;
15408;SDS011;7803;48.130;13.788;2023-02-01T20:18:33;2.47;;;1.45;;
15408;SDS011;7803;48.130;13.788;2023-02-01T20:21:39;1.88;;;1.50;;
15408;SDS011;7803;48.130;13.788;2023-02-01T20:24:43;1.50;;;1.23;;
15408;SDS011;7803;48.130;13.788;2023-02-01T20:27:46;1.55;;;1.45;;
15408;SDS011;7803;48.130;13.788;2023-02-01T20:30:51;1.50;;;1.40;;
15408;SDS011;7803;48.130;13.788;2023-02-01T20:33:55;1.90;;;1.38;;
15408;SDS011;7803;48.130;13.788;2023-02-01T20:37:00;2.80;;;1.50;;
15408;SDS011;7803;48.130;13.788;2023-02-01T20:40:03;2.25;;;1.65;;
15408;SDS011;7803;48.130;13.788;2023-02-01T20:43:07;4.13;;;1.92;;
15408;SDS011;7803;48.130;13.788;2023-02-01T20:46:10;2.05;;;1.38;;
15408;SDS011;7803;48.130;13.788;2023-02-01T20:49:16;1.75;;;1.40;;
15408;SDS011;7803;48.130;13.788;2023-02-01T20:52:18;2.33;;;1.38;;
15408;SDS011;7803;48.130;13.788;2023-02-01T20:55:22;1.67;;;1.30;;
15408;SDS011;7803;48.130;13.788;2023-02-01T20:58:25;1.90;;;1.38;;
15408;SDS011;7803;48.130;13.788;2023-02-01T21:01:28;2.60;;;1.67;;
15408;SDS011;7803;48.130;13.788;2023-02-01T21:04:33;1.50;;;1.33;;
15408;SDS011;7803;48.130;13.788;2023-02-01T21:07:36;1.75;;;1.50;;
15408;SDS011;7803;48.130;13.788;2023-02-01T21:10:39;1.50;;;1.30;;
15408;SDS011;7803;48.130;13.788;2023-02-01T21:13:42;3.80;;;1.48;;
15408;SDS011;7803;48.130;13.788;2023-02-01T21:16:49;3.55;;;1.38;;
15408;SDS011;7803;48.130;13.788;2023-02-01T21:19:55;1.65;;;1.20;;
15408;SDS011;7803;48.130;13.788;2023-02-01T21:22:58;3.05;;;1.70;;
15408;SDS011;7803;48.130;13.788;2023-02-01T21:26:00;2.35;;;1.70;;
15408;SDS011;7803;48.130;13.788;2023-02-01T21:29:03;2.35;;;1.75;;
15408;SDS011;7803;48.130;13.788;2023-02-01T21:32:06;2.38;;;1.67;;
15408;SDS011;7803;48.130;13.788;2023-02-01T21:35:13;2.28;;;1.90;;
15408;SDS011;7803;48.130;13.788;2023-02-01T21:38:16;2.28;;;1.75;;
15408;SDS011;7803;48.130;13.788;2023-02-01T21:41:20;2.33;;;1.63;;
15408;SDS011;7803;48.130;13.788;2023-02-01T21:44:41;3.15;;;1.98;;
15408;SDS011;7803;48.130;13.788;2023-02-01T21:47:45;3.10;;;1.90;;
15408;SDS011;7803;48.130;13.788;2023-02-01T21:50:48;2.50;;;2.00;;
15408;SDS011;7803;48.130;13.788;2023-02-01T21:53:51;2.78;;;2.10;;
15408;SDS011;7803;48.130;13.788;2023-02-01T21:56:53;2.42;;;2.20;;
15408;SDS011;7803;48.130;13.788;2023-02-01T21:59:55;2.53;;;2.00;;
15408;SDS011;7803;48.130;13.788;2023-02-01T22:02:58;3.97;;;2.60;;
15408;SDS011;7803;48.130;13.788;2023-02-01T22:06:01;3.47;;;2.53;;
15408;SDS011;7803;48.130;13.788;2023-02-01T22:09:04;4.10;;;2.70;;
15408;SDS011;7803;48.130;13.788;2023-02-01T22:12:07;2.85;;;2.53;;
15408;SDS011;7803;48.130;13.788;2023-02-01T22:15:10;2.78;;;2.42;;
15408;SDS011;7803;48.130;13.788;2023-02-01T22:18:12;3.47;;;2.70;;
15408;SDS011;7803;48.130;13.788;2023-02-01T22:21:16;3.42;;;2.40;;
15408;SDS011;7803;48.130;13.788;2023-02-01T22:24:18;3.70;;;2.50;;
15408;SDS011;7803;48.130;13.788;2023-02-01T22:27:21;3.78;;;2.63;;
15408;SDS011;7803;48.130;13.788;2023-02-01T22:30:23;2.95;;;2.42;;
15408;SDS011;7803;48.130;13.788;2023-02-01T22:33:25;4.57;;;3.15;;
15408;SDS011;7803;48.130;13.788;2023-02-01T22:36:28;3.67;;;2.72;;
15408;SDS011;7803;48.130;13.788;2023-02-01T22:39:30;4.20;;;3.03;;
15408;SDS011;7803;48.130;13.788;2023-02-01T22:42:32;4.03;;;2.78;;
15408;SDS011;7803;48.130;13.788;2023-02-01T22:45:34;4.25;;;2.60;;
15408;SDS011;7803;48.130;13.788;2023-02-01T22:48:38;3.80;;;2.70;;
15408;SDS011;7803;48.130;13.788;2023-02-01T22:51:42;3.63;;;2.80;;
15408;SDS011;7803;48.130;13.788;2023-02-01T22:54:45;3.47;;;2.90;;
15408;SDS011;7803;48.130;13.788;2023-02-01T22:57:47;3.67;;;2.95;;
15408;SDS011;7803;48.130;13.788;2023-02-01T23:00:49;5.15;;;3.67;;
15408;SDS011;7803;48.130;13.788;2023-02-01T23:03:54;3.42;;;2.70;;
15408;SDS011;7803;48.130;13.788;2023-02-01T23:06:58;3.10;;;2.80;;
15408;SDS011;7803;48.130;13.788;2023-02-01T23:10:01;3.60;;;2.58;;
15408;SDS011;7803;48.130;13.788;2023-02-01T23:13:03;3.10;;;2.80;;
15408;SDS011;7803;48.130;13.788;2023-02-01T23:16:06;3.42;;;2.75;;
15408;SDS011;7803;48.130;13.788;2023-02-01T23:19:09;2.90;;;2.50;;
15408;SDS011;7803;48.130;13.788;2023-02-01T23:22:13;3.08;;;2.70;;
15408;SDS011;7803;48.130;13.788;2023-02-01T23:25:15;3.13;;;2.83;;
15408;SDS011;7803;48.130;13.788;2023-02-01T23:28:18;3.55;;;2.80;;
15408;SDS011;7803;48.130;13.788;2023-02-01T23:31:21;3.05;;;2.70;;
15408;SDS011;7803;48.130;13.788;2023-02-01T23:34:24;3.10;;;2.72;;
15408;SDS011;7803;48.130;13.788;2023-02-01T23:37:27;3.28;;;2.80;;
15408;SDS011;7803;48.130;13.788;2023-02-01T23:40:29;3.17;;;2.70;;
15408;SDS011;7803;48.130;13.788;2023-02-01T23:43:32;3.30;;;2.97;;
15408;SDS011;7803;48.130;13.788;2023-02-01T23:46:52;3.45;;;2.67;;
15408;SDS011;7803;48.130;13.788;2023-02-01T23:49:54;4.38;;;2.95;;
15408;SDS011;7803;48.130;13.788;2023-02-01T23:52:57;3.50;;;2.78;;
15408;SDS011;7803;48.130;13.788;2023-02-01T23:55:59;3.03;;;2.70;;
15408;SDS011;7803;48.130;13.788;2023-02-01T23:59:02;3.13;;;2.83;;
